Time;durP1;ratioP1;P1;durP2;ratioP2;P2;SDS_P1;SDS_P2;PMS_P1;PMS_P2;Temp;Humidity;BMP_temperature;BMP_pressure;BME280_temperature;BME280_humidity;BME280_pressure;Samples;Min_cycle;Max_cycle;Signal;HPM_P1;HPM_P2
2024/01/20 00:01:15;;;;;;;;;;;17.80;53.30;;;;;;10325147;28;93643;-63
2024/01/20 00:06:17;;;;;;;;;;;17.70;53.10;;;;;;10329711;28;96277;-63
2024/01/20 00:11:20;;;;;;;;;;;17.70;52.90;;;;;;10322098;28;93325;-62
2024/01/20 00:16:22;;;;;;;;;;;17.60;52.60;;;;;;10323771;28;93534;-62
2024/01/20 00:21:24;;;;;;;;;;;17.50;52.40;;;;;;10313718;28;93321;-62
2024/01/20 00:26:26;;;;;;;;;;;17.50;52.40;;;;;;10313586;28;93379;-61
2024/01/20 00:31:28;;;;;;;;;;;17.40;53.00;;;;;;10313361;28;94501;-62
2024/01/20 00:36:30;;;;;;;;;;;17.30;53.40;;;;;;10318410;28;93630;-62
2024/01/20 00:41:32;;;;;;;;;;;17.30;53.50;;;;;;10314280;28;92742;-63
2024/01/20 00:46:34;;;;;;;;;;;17.30;53.30;;;;;;10321790;28;93459;-62
2024/01/20 00:51:36;;;;;;;;;;;17.20;53.10;;;;;;10320164;28;94574;-62
2024/01/20 00:56:38;;;;;;;;;;;17.20;52.80;;;;;;10321526;28;96807;-62
2024/01/20 01:01:40;;;;;;;;;;;17.10;52.70;;;;;;10314372;28;93431;-62
2024/01/20 01:06:43;;;;;;;;;;;17.10;52.50;;;;;;10321096;28;94495;-62
2024/01/20 01:11:46;;;;;;;;;;;17.10;52.30;;;;;;10315579;28;94667;-62
2024/01/20 01:16:47;;;;;;;;;;;17.00;52.10;;;;;;10320404;28;94451;-62
2024/01/20 01:21:50;;;;;;;;;;;17.00;52.20;;;;;;10323425;28;93445;-62
2024/01/20 01:26:52;;;;;;;;;;;17.00;52.90;;;;;;10324696;28;93534;-63
2024/01/20 01:31:56;;;;;;;;;;;16.90;53.00;;;;;;10326350;28;93996;-62
2024/01/20 01:36:58;;;;;;;;;;;16.80;52.80;;;;;;10322590;28;94309;-62
2024/01/20 01:41:59;;;;;;;;;;;16.80;52.50;;;;;;10312676;28;94337;-63
2024/01/20 01:47:01;;;;;;;;;;;16.80;52.20;;;;;;10314299;28;95883;-63
2024/01/20 01:52:03;;;;;;;;;;;16.70;51.90;;;;;;10318199;28;94406;-62
2024/01/20 01:57:05;;;;;;;;;;;16.70;51.80;;;;;;10313766;28;93520;-62
2024/01/20 02:02:17;;;;;;;;;;;16.70;51.60;;;;;;10688563;22;93792;-52
2024/01/20 02:07:19;;;;;;;;;;;16.70;51.40;;;;;;10251927;28;97021;-63
2024/01/20 02:12:21;;;;;;;;;;;16.60;51.30;;;;;;10266156;28;94120;-63
2024/01/20 02:17:23;;;;;;;;;;;16.60;51.60;;;;;;10256394;28;93777;-64
2024/01/20 02:22:25;;;;;;;;;;;16.50;52.20;;;;;;10265284;28;93573;-63
2024/01/20 02:27:27;;;;;;;;;;;16.50;52.20;;;;;;10272970;28;94590;-62
2024/01/20 02:32:29;;;;;;;;;;;16.50;52.10;;;;;;10270678;28;93393;-62
2024/01/20 02:37:30;;;;;;;;;;;16.40;51.70;;;;;;10267153;28;96914;-62
2024/01/20 02:42:32;;;;;;;;;;;16.40;51.60;;;;;;10262161;28;94416;-62
2024/01/20 02:47:34;;;;;;;;;;;16.40;51.40;;;;;;10264410;28;94153;-62
2024/01/20 02:52:36;;;;;;;;;;;16.40;51.20;;;;;;10276749;28;94773;-62
2024/01/20 02:57:38;;;;;;;;;;;16.30;51.00;;;;;;10259731;28;93429;-62
2024/01/20 03:02:40;;;;;;;;;;;16.30;50.80;;;;;;10279705;28;94446;-62
2024/01/20 03:07:41;;;;;;;;;;;16.30;50.70;;;;;;10279309;28;92928;-62
2024/01/20 03:12:43;;;;;;;;;;;16.30;51.30;;;;;;10271499;28;93652;-61
2024/01/20 03:17:45;;;;;;;;;;;16.20;51.90;;;;;;10270430;28;93267;-61
2024/01/20 03:22:47;;;;;;;;;;;16.20;51.90;;;;;;10283315;28;94736;-62
2024/01/20 03:27:48;;;;;;;;;;;16.20;51.60;;;;;;10282973;28;96819;-62
2024/01/20 03:32:51;;;;;;;;;;;16.30;51.30;;;;;;10273765;28;93863;-62
2024/01/20 03:37:53;;;;;;;;;;;16.30;50.80;;;;;;10273912;28;94521;-61
2024/01/20 03:42:55;;;;;;;;;;;16.30;50.50;;;;;;10272817;28;94407;-61
2024/01/20 03:47:56;;;;;;;;;;;16.30;50.30;;;;;;10280846;28;93700;-62
2024/01/20 03:52:58;;;;;;;;;;;16.30;50.10;;;;;;10282750;28;94978;-62
2024/01/20 03:58:00;;;;;;;;;;;16.30;50.00;;;;;;10276497;28;93323;-63
2024/01/20 04:03:03;;;;;;;;;;;16.30;49.90;;;;;;10280560;28;94239;-62
2024/01/20 04:08:05;;;;;;;;;;;16.30;50.30;;;;;;10275311;28;93948;-62
2024/01/20 04:13:07;;;;;;;;;;;16.20;50.70;;;;;;10276468;28;93902;-61
2024/01/20 04:18:08;;;;;;;;;;;16.20;50.90;;;;;;10295965;28;95976;-61
2024/01/20 04:23:10;;;;;;;;;;;16.30;50.80;;;;;;10270225;28;93487;-61
2024/01/20 04:28:12;;;;;;;;;;;16.30;50.30;;;;;;10294675;28;94515;-61
2024/01/20 04:33:14;;;;;;;;;;;16.30;50.10;;;;;;10273899;28;93711;-62
2024/01/20 04:38:16;;;;;;;;;;;16.40;49.80;;;;;;10279381;28;95356;-62
2024/01/20 04:43:19;;;;;;;;;;;16.30;49.60;;;;;;10276444;28;93637;-62
2024/01/20 04:48:22;;;;;;;;;;;16.40;49.50;;;;;;10280118;28;94517;-62
2024/01/20 04:53:24;;;;;;;;;;;16.30;49.30;;;;;;10275261;28;93193;-62
2024/01/20 04:58:26;;;;;;;;;;;16.30;49.30;;;;;;10268527;28;94482;-63
2024/01/20 05:03:27;;;;;;;;;;;16.30;49.90;;;;;;10267260;28;93461;-62
2024/01/20 05:08:29;;;;;;;;;;;16.20;50.10;;;;;;10267180;28;96924;-61
2024/01/20 05:13:31;;;;;;;;;;;16.20;50.30;;;;;;10272667;28;93447;-62
2024/01/20 05:18:33;;;;;;;;;;;16.20;50.10;;;;;;10270348;28;93985;-61
2024/01/20 05:23:35;;;;;;;;;;;16.30;49.80;;;;;;10269808;28;93963;-61
2024/01/20 05:28:36;;;;;;;;;;;16.30;49.50;;;;;;10282576;28;94394;-62
2024/01/20 05:33:38;;;;;;;;;;;16.30;49.30;;;;;;10284027;28;93799;-68
2024/01/20 05:38:40;;;;;;;;;;;16.30;49.10;;;;;;10285301;28;93476;-61
2024/01/20 05:43:42;;;;;;;;;;;16.30;49.30;;;;;;10267437;28;94761;-61
2024/01/20 05:48:44;;;;;;;;;;;16.20;49.40;;;;;;10279288;28;93972;-63
2024/01/20 05:53:46;;;;;;;;;;;16.20;49.60;;;;;;10261724;28;93519;-63
2024/01/20 05:58:48;;;;;;;;;;;16.20;49.80;;;;;;10270251;28;96355;-62
2024/01/20 06:03:50;;;;;;;;;;;16.20;49.80;;;;;;10264885;28;94322;-61
2024/01/20 06:08:53;;;;;;;;;;;16.30;49.70;;;;;;10283574;28;95392;-62
2024/01/20 06:13:55;;;;;;;;;;;16.30;49.60;;;;;;10273768;28;94381;-61
2024/01/20 06:18:57;;;;;;;;;;;16.50;49.50;;;;;;10281275;28;95576;-62
2024/01/20 06:23:58;;;;;;;;;;;16.60;49.50;;;;;;10267468;28;93518;-61
2024/01/20 06:29:00;;;;;;;;;;;16.70;49.20;;;;;;10268699;28;93912;-61
2024/01/20 06:34:03;;;;;;;;;;;16.90;49.00;;;;;;10281109;28;93013;-61
2024/01/20 06:39:05;;;;;;;;;;;17.00;48.90;;;;;;10270710;28;93948;-61
2024/01/20 06:44:07;;;;;;;;;;;17.10;48.80;;;;;;10276079;28;93992;-61
2024/01/20 06:49:09;;;;;;;;;;;17.20;48.70;;;;;;10273636;28;96339;-62
2024/01/20 06:54:11;;;;;;;;;;;17.30;48.50;;;;;;10267273;28;94544;-61
2024/01/20 06:59:13;;;;;;;;;;;17.40;48.50;;;;;;10271446;28;94905;-62
2024/01/20 07:04:15;;;;;;;;;;;17.60;48.50;;;;;;10267660;28;93377;-63
2024/01/20 07:09:18;;;;;;;;;;;17.60;48.50;;;;;;10281939;28;95987;-62
2024/01/20 07:14:20;;;;;;;;;;;17.60;48.50;;;;;;10295593;28;93975;-62
2024/01/20 07:19:25;;;;;;;;;;;17.60;48.70;;;;;;10259234;28;94865;-62
2024/01/20 07:24:29;;;;;;;;;;;17.80;48.60;;;;;;10270213;28;93612;-63
2024/01/20 07:29:33;;;;;;;;;;;17.90;48.60;;;;;;10277125;28;94677;-62
2024/01/20 07:34:38;;;;;;;;;;;18.00;48.60;;;;;;10277882;28;93511;-62
2024/01/20 07:39:40;;;;;;;;;;;18.10;48.50;;;;;;10275170;28;95415;-61
2024/01/20 07:44:42;;;;;;;;;;;18.20;48.50;;;;;;10292845;28;94611;-62
2024/01/20 07:49:43;;;;;;;;;;;18.20;48.40;;;;;;10275598;28;94210;-62
2024/01/20 07:54:45;;;;;;;;;;;18.30;48.40;;;;;;10278767;28;94587;-63
2024/01/20 07:59:47;;;;;;;;;;;18.40;49.30;;;;;;10269552;28;93317;-63
2024/01/20 08:04:49;;;;;;;;;;;18.40;49.90;;;;;;10268858;28;93525;-63
2024/01/20 08:09:52;;;;;;;;;;;18.40;51.70;;;;;;10281701;28;94500;-63
2024/01/20 08:14:53;;;;;;;;;;;18.30;51.90;;;;;;10263723;28;93807;-64
2024/01/20 08:19:56;;;;;;;;;;;18.30;51.70;;;;;;10290602;28;93274;-63
2024/01/20 08:24:59;;;;;;;;;;;18.30;51.80;;;;;;10265763;28;94984;-63
2024/01/20 08:30:03;;;;;;;;;;;18.30;51.50;;;;;;10275025;28;116322;-63
2024/01/20 08:35:05;;;;;;;;;;;18.20;51.20;;;;;;10270277;28;93484;-63
2024/01/20 08:40:07;;;;;;;;;;;18.20;51.10;;;;;;10271439;28;94052;-63
2024/01/20 08:45:09;;;;;;;;;;;18.30;51.00;;;;;;10269658;28;93015;-63
2024/01/20 08:50:11;;;;;;;;;;;18.40;50.80;;;;;;10271612;28;94528;-64
2024/01/20 08:55:13;;;;;;;;;;;18.50;50.50;;;;;;10281799;28;93448;-63
2024/01/20 09:00:16;;;;;;;;;;;18.60;50.20;;;;;;10267304;28;93583;-62
2024/01/20 09:05:19;;;;;;;;;;;18.60;49.80;;;;;;10262591;28;92435;-63
2024/01/20 09:10:23;;;;;;;;;;;18.50;49.70;;;;;;10253856;28;93959;-64
2024/01/20 09:15:25;;;;;;;;;;;18.40;49.70;;;;;;10269746;28;94368;-64
2024/01/20 09:20:27;;;;;;;;;;;18.50;49.60;;;;;;10277276;28;95538;-73
2024/01/20 09:25:29;;;;;;;;;;;18.50;49.60;;;;;;10264508;28;93888;-63
2024/01/20 09:30:31;;;;;;;;;;;18.50;49.60;;;;;;10279227;28;93760;-63
2024/01/20 09:35:33;;;;;;;;;;;18.60;49.40;;;;;;10270458;28;93779;-63
2024/01/20 09:40:35;;;;;;;;;;;18.50;50.00;;;;;;10288800;28;94464;-64
2024/01/20 09:45:40;;;;;;;;;;;18.40;50.60;;;;;;10276275;28;93478;-63
2024/01/20 09:50:41;;;;;;;;;;;18.40;50.70;;;;;;10280033;28;94532;-63
2024/01/20 09:55:44;;;;;;;;;;;18.50;50.80;;;;;;10271082;28;94048;-63
2024/01/20 10:00:46;;;;;;;;;;;18.60;50.80;;;;;;10261267;28;93496;-64
2024/01/20 10:05:51;;;;;;;;;;;18.70;50.60;;;;;;10265393;28;94506;-64
2024/01/20 10:11:03;;;;;;;;;;;18.70;50.60;;;;;;10261237;28;96950;-64
2024/01/20 10:16:05;;;;;;;;;;;18.60;50.60;;;;;;10273282;28;94085;-64
2024/01/20 10:21:08;;;;;;;;;;;18.50;50.80;;;;;;10279299;28;94567;-63
2024/01/20 10:26:09;;;;;;;;;;;18.40;51.00;;;;;;10273801;28;94066;-64
2024/01/20 10:31:11;;;;;;;;;;;18.40;51.00;;;;;;10269810;28;94341;-64
2024/01/20 10:36:16;;;;;;;;;;;18.40;51.20;;;;;;10263194;28;93734;-63
2024/01/20 10:41:19;;;;;;;;;;;18.30;51.30;;;;;;10276948;28;94608;-65
2024/01/20 10:46:23;;;;;;;;;;;18.20;52.30;;;;;;10279718;28;93756;-64
2024/01/20 10:51:27;;;;;;;;;;;18.30;52.80;;;;;;10277374;28;93573;-62
2024/01/20 10:56:29;;;;;;;;;;;18.40;52.20;;;;;;10273926;28;94271;-63
2024/01/20 11:01:31;;;;;;;;;;;18.30;51.60;;;;;;10272531;28;95541;-64
2024/01/20 11:06:34;;;;;;;;;;;18.20;51.40;;;;;;10282826;28;93367;-63
2024/01/20 11:11:36;;;;;;;;;;;18.20;51.40;;;;;;10277754;28;93841;-63
2024/01/20 11:16:40;;;;;;;;;;;18.20;51.20;;;;;;10272531;28;94056;-63
2024/01/20 11:21:42;;;;;;;;;;;18.20;51.20;;;;;;10279653;28;94235;-63
2024/01/20 11:26:45;;;;;;;;;;;18.30;51.10;;;;;;10267330;28;94761;-64
2024/01/20 11:31:48;;;;;;;;;;;18.40;51.00;;;;;;10283701;28;93323;-62
2024/01/20 11:36:51;;;;;;;;;;;18.40;50.90;;;;;;10279257;28;92301;-63
2024/01/20 11:42:03;;;;;;;;;;;18.40;50.60;;;;;;10278546;28;93717;-62
2024/01/20 11:47:05;;;;;;;;;;;18.40;50.60;;;;;;10271349;28;93553;-62
2024/01/20 11:52:07;;;;;;;;;;;18.40;50.60;;;;;;10268972;28;95724;-63
2024/01/20 11:57:08;;;;;;;;;;;18.40;50.50;;;;;;10263567;28;94313;-62
2024/01/20 12:02:11;;;;;;;;;;;18.40;50.40;;;;;;10268017;28;94308;-62
2024/01/20 12:07:13;;;;;;;;;;;18.30;50.30;;;;;;10277305;28;97089;-62
2024/01/20 12:12:16;;;;;;;;;;;18.20;50.40;;;;;;10277975;28;94366;-62
2024/01/20 12:17:22;;;;;;;;;;;18.30;50.60;;;;;;10277648;28;94562;-63
2024/01/20 12:22:24;;;;;;;;;;;18.30;50.50;;;;;;10268483;28;94259;-63
2024/01/20 12:27:26;;;;;;;;;;;18.40;50.30;;;;;;10277422;28;94205;-62
2024/01/20 12:32:28;;;;;;;;;;;18.40;50.00;;;;;;10272856;28;94174;-63
2024/01/20 12:37:30;;;;;;;;;;;18.40;49.90;;;;;;10279440;28;93972;-62
2024/01/20 12:42:32;;;;;;;;;;;18.40;50.00;;;;;;10264659;28;96824;-62
2024/01/20 12:47:34;;;;;;;;;;;18.40;50.10;;;;;;10270477;28;94248;-62
2024/01/20 12:52:36;;;;;;;;;;;18.50;50.00;;;;;;10275849;28;93584;-62
2024/01/20 12:57:38;;;;;;;;;;;18.50;49.80;;;;;;10265752;28;93610;-63
2024/01/20 13:02:40;;;;;;;;;;;18.60;49.60;;;;;;10270044;28;93905;-62
2024/01/20 13:07:42;;;;;;;;;;;18.60;49.60;;;;;;10272150;28;93878;-63
2024/01/20 13:12:44;;;;;;;;;;;18.60;50.50;;;;;;10274813;28;93618;-63
2024/01/20 13:17:46;;;;;;;;;;;18.60;52.40;;;;;;10284267;28;93280;-63
2024/01/20 13:22:48;;;;;;;;;;;18.60;51.40;;;;;;10271294;28;94776;-65
2024/01/20 13:27:51;;;;;;;;;;;18.60;51.30;;;;;;10278956;28;93907;-63
2024/01/20 13:32:54;;;;;;;;;;;18.70;51.30;;;;;;10268336;28;95041;-63
2024/01/20 13:37:56;;;;;;;;;;;18.60;51.30;;;;;;10278260;28;93438;-63
2024/01/20 13:42:57;;;;;;;;;;;18.60;51.50;;;;;;10257935;28;93467;-64
2024/01/20 13:47:59;;;;;;;;;;;18.60;52.70;;;;;;10288441;28;94372;-70
2024/01/20 13:53:03;;;;;;;;;;;18.60;53.30;;;;;;10293994;28;94651;-63
2024/01/20 13:58:05;;;;;;;;;;;18.60;53.30;;;;;;10295197;28;94520;-63
2024/01/20 14:03:07;;;;;;;;;;;18.50;53.10;;;;;;10276289;28;93461;-61
2024/01/20 14:08:09;;;;;;;;;;;18.40;52.40;;;;;;10282773;28;93772;-63
2024/01/20 14:13:11;;;;;;;;;;;18.50;52.70;;;;;;10282518;28;94450;-63
2024/01/20 14:18:12;;;;;;;;;;;18.50;52.00;;;;;;10289531;28;93963;-62
2024/01/20 14:23:14;;;;;;;;;;;18.50;51.40;;;;;;10286523;28;95877;-63
2024/01/20 14:28:17;;;;;;;;;;;18.50;51.10;;;;;;10276625;28;93484;-62
2024/01/20 14:33:19;;;;;;;;;;;18.40;51.20;;;;;;10286338;28;93214;-63
2024/01/20 14:38:21;;;;;;;;;;;18.50;51.20;;;;;;10277367;28;93472;-62
2024/01/20 14:43:24;;;;;;;;;;;18.50;50.90;;;;;;10276675;28;94584;-63
2024/01/20 14:48:25;;;;;;;;;;;18.50;51.50;;;;;;10283338;28;94211;-63
2024/01/20 14:53:27;;;;;;;;;;;18.40;51.00;;;;;;10255294;28;94568;-63
2024/01/20 14:58:29;;;;;;;;;;;18.40;50.80;;;;;;10263218;28;93917;-63
2024/01/20 15:03:31;;;;;;;;;;;18.40;50.70;;;;;;10276863;28;93663;-64
2024/01/20 15:08:33;;;;;;;;;;;18.50;50.40;;;;;;10270262;28;93536;-64
2024/01/20 15:13:34;;;;;;;;;;;18.50;50.20;;;;;;10262030;28;96622;-63
2024/01/20 15:18:36;;;;;;;;;;;18.50;50.00;;;;;;10263561;28;93799;-63
2024/01/20 15:23:38;;;;;;;;;;;18.40;50.00;;;;;;10279247;28;93881;-64
2024/01/20 15:28:40;;;;;;;;;;;18.40;49.90;;;;;;10268836;28;93738;-63
2024/01/20 15:33:42;;;;;;;;;;;18.50;49.80;;;;;;10255756;28;94150;-63
2024/01/20 15:38:44;;;;;;;;;;;18.50;49.50;;;;;;10263856;28;94594;-63
2024/01/20 15:43:46;;;;;;;;;;;18.60;49.40;;;;;;10276221;28;93887;-63
2024/01/20 15:48:50;;;;;;;;;;;18.70;49.30;;;;;;10294735;28;94004;-62
2024/01/20 15:53:52;;;;;;;;;;;18.80;49.00;;;;;;10288237;28;93464;-64
2024/01/20 15:58:54;;;;;;;;;;;18.90;48.60;;;;;;10272651;28;93976;-62
2024/01/20 16:03:55;;;;;;;;;;;19.10;48.20;;;;;;10269165;28;96771;-63
2024/01/20 16:08:58;;;;;;;;;;;19.20;48.00;;;;;;10260513;28;93534;-63
2024/01/20 16:13:59;;;;;;;;;;;19.20;47.70;;;;;;10278608;28;93626;-64
2024/01/20 16:19:01;;;;;;;;;;;19.30;47.70;;;;;;10261570;28;95041;-63
2024/01/20 16:24:04;;;;;;;;;;;19.40;47.50;;;;;;10275144;28;94889;-64
2024/01/20 16:29:06;;;;;;;;;;;19.40;47.40;;;;;;10260570;28;93446;-63
2024/01/20 16:34:08;;;;;;;;;;;19.20;47.40;;;;;;10271623;28;95067;-62
2024/01/20 16:39:10;;;;;;;;;;;19.10;46.90;;;;;;10266585;28;94205;-64
2024/01/20 16:44:12;;;;;;;;;;;19.10;47.20;;;;;;10267726;28;94520;-62
2024/01/20 16:49:14;;;;;;;;;;;19.10;47.20;;;;;;10275030;28;94627;-62
2024/01/20 16:54:16;;;;;;;;;;;19.00;47.20;;;;;;10266463;28;96539;-63
2024/01/20 16:59:18;;;;;;;;;;;18.90;47.40;;;;;;10271566;28;94392;-63
2024/01/20 17:04:20;;;;;;;;;;;18.90;47.70;;;;;;10261857;28;93167;-65
2024/01/20 17:09:23;;;;;;;;;;;18.90;47.70;;;;;;10258689;28;94279;-62
2024/01/20 17:14:24;;;;;;;;;;;19.10;47.60;;;;;;10265499;28;93468;-63
2024/01/20 17:19:30;;;;;;;;;;;19.20;47.40;;;;;;10265799;28;93184;-63
2024/01/20 17:24:33;;;;;;;;;;;19.30;47.30;;;;;;10266368;28;93744;-64
2024/01/20 17:29:35;;;;;;;;;;;19.30;47.00;;;;;;10271071;28;93523;-65
2024/01/20 17:34:37;;;;;;;;;;;19.20;47.00;;;;;;10277510;28;94427;-64
2024/01/20 17:39:39;;;;;;;;;;;19.10;47.30;;;;;;10276505;28;93620;-64
2024/01/20 17:44:41;;;;;;;;;;;19.10;47.60;;;;;;10272451;28;96221;-63
2024/01/20 17:49:43;;;;;;;;;;;19.20;47.70;;;;;;10282619;28;93636;-64
2024/01/20 17:54:45;;;;;;;;;;;19.20;47.50;;;;;;10266012;28;94393;-63
2024/01/20 17:59:47;;;;;;;;;;;19.20;53.60;;;;;;10271756;28;94522;-62
2024/01/20 18:04:49;;;;;;;;;;;19.10;54.00;;;;;;10265922;28;93751;-63
2024/01/20 18:09:52;;;;;;;;;;;19.10;54.80;;;;;;10278329;28;94105;-64
2024/01/20 18:14:54;;;;;;;;;;;19.10;55.20;;;;;;10262187;28;94470;-62
2024/01/20 18:19:56;;;;;;;;;;;19.20;53.50;;;;;;10265721;28;92856;-61
2024/01/20 18:24:58;;;;;;;;;;;19.30;53.10;;;;;;10268807;28;94176;-62
2024/01/20 18:30:00;;;;;;;;;;;19.30;53.30;;;;;;10268986;28;93592;-62
2024/01/20 18:35:05;;;;;;;;;;;19.20;53.10;;;;;;10263818;28;97163;-63
2024/01/20 18:40:07;;;;;;;;;;;19.10;53.00;;;;;;10258776;28;93412;-63
2024/01/20 18:45:09;;;;;;;;;;;19.00;53.20;;;;;;10281637;28;94393;-63
2024/01/20 18:50:13;;;;;;;;;;;18.90;53.70;;;;;;10277243;28;93732;-62
2024/01/20 18:55:15;;;;;;;;;;;18.90;53.50;;;;;;10285412;28;94865;-62
2024/01/20 19:00:16;;;;;;;;;;;18.90;53.10;;;;;;10279940;28;93177;-63
2024/01/20 19:05:18;;;;;;;;;;;19.00;53.20;;;;;;10268413;28;93557;-62
2024/01/20 19:10:21;;;;;;;;;;;18.90;52.80;;;;;;10280333;28;93311;-62
2024/01/20 19:15:23;;;;;;;;;;;18.90;52.70;;;;;;10280778;28;93552;-62
2024/01/20 19:20:25;;;;;;;;;;;18.80;52.70;;;;;;10267787;28;93361;-62
2024/01/20 19:25:27;;;;;;;;;;;18.70;52.70;;;;;;10272061;28;96972;-64
2024/01/20 19:30:28;;;;;;;;;;;18.60;52.90;;;;;;10268360;28;93450;-64
2024/01/20 19:35:30;;;;;;;;;;;18.50;53.00;;;;;;10281710;28;94464;-62
2024/01/20 19:40:32;;;;;;;;;;;18.50;53.30;;;;;;10287002;28;94428;-63
2024/01/20 19:45:34;;;;;;;;;;;18.50;53.10;;;;;;10295558;28;94867;-63
2024/01/20 19:50:37;;;;;;;;;;;18.60;52.90;;;;;;10330907;28;94890;-64
2024/01/20 19:55:40;;;;;;;;;;;18.60;52.60;;;;;;10321869;28;92539;-63
2024/01/20 20:00:44;;;;;;;;;;;18.60;52.50;;;;;;10313426;28;92166;-64
2024/01/20 20:05:46;;;;;;;;;;;18.50;52.40;;;;;;10291072;28;92656;-64
2024/01/20 20:10:52;;;;;;;;;;;18.50;52.60;;;;;;10279023;28;94058;-62
2024/01/20 20:15:54;;;;;;;;;;;18.50;52.60;;;;;;10258546;28;96267;-64
2024/01/20 20:20:56;;;;;;;;;;;18.50;53.00;;;;;;10274114;28;94289;-63
2024/01/20 20:25:58;;;;;;;;;;;18.40;54.30;;;;;;10273535;28;93658;-63
2024/01/20 20:30:59;;;;;;;;;;;18.40;53.30;;;;;;10276478;28;93440;-63
2024/01/20 20:36:10;;;;;;;;;;;18.50;53.00;;;;;;10279508;28;93717;-63
2024/01/20 20:41:12;;;;;;;;;;;18.60;52.60;;;;;;10259400;28;94057;-64
2024/01/20 20:46:14;;;;;;;;;;;18.60;52.30;;;;;;10265404;28;93372;-64
2024/01/20 20:51:15;;;;;;;;;;;18.60;52.00;;;;;;10274412;28;91929;-63
2024/01/20 20:56:17;;;;;;;;;;;18.60;52.00;;;;;;10277563;28;94446;-64
2024/01/20 21:01:20;;;;;;;;;;;18.60;52.00;;;;;;10270742;28;94208;-63
2024/01/20 21:06:23;;;;;;;;;;;18.40;51.90;;;;;;10265846;28;96879;-64
2024/01/20 21:11:24;;;;;;;;;;;18.40;52.20;;;;;;10259837;28;93638;-64
2024/01/20 21:16:26;;;;;;;;;;;18.30;52.20;;;;;;10269700;28;93495;-64
2024/01/20 21:21:28;;;;;;;;;;;18.20;52.50;;;;;;10279438;28;93327;-62
2024/01/20 21:26:30;;;;;;;;;;;18.20;52.80;;;;;;10269737;28;94010;-62
2024/01/20 21:31:32;;;;;;;;;;;18.20;53.10;;;;;;10265314;28;93472;-62
2024/01/20 21:36:34;;;;;;;;;;;18.20;53.00;;;;;;10264456;28;93910;-63
2024/01/20 21:41:36;;;;;;;;;;;18.20;53.00;;;;;;10273182;28;91836;-63
2024/01/20 21:46:38;;;;;;;;;;;18.30;52.80;;;;;;10277086;28;94488;-62
2024/01/20 21:51:40;;;;;;;;;;;18.40;52.50;;;;;;10276559;28;93508;-63
2024/01/20 21:56:42;;;;;;;;;;;18.60;52.30;;;;;;10281605;28;96811;-63
2024/01/20 22:01:44;;;;;;;;;;;18.60;51.90;;;;;;10275248;28;93525;-63
2024/01/20 22:06:46;;;;;;;;;;;18.70;52.00;;;;;;10273857;28;93997;-63
2024/01/20 22:11:48;;;;;;;;;;;18.60;51.80;;;;;;10276231;28;94406;-63
2024/01/20 22:16:51;;;;;;;;;;;18.60;51.90;;;;;;10278570;28;94323;-62
2024/01/20 22:21:53;;;;;;;;;;;18.60;52.20;;;;;;10286845;28;93983;-62
2024/01/20 22:26:55;;;;;;;;;;;18.60;51.80;;;;;;10291119;28;93782;-64
2024/01/20 22:31:57;;;;;;;;;;;18.60;54.10;;;;;;10278519;28;93338;-63
2024/01/20 22:36:59;;;;;;;;;;;18.60;53.70;;;;;;10270360;28;93934;-63
2024/01/20 22:42:01;;;;;;;;;;;18.70;53.30;;;;;;10275226;28;94482;-63
2024/01/20 22:47:03;;;;;;;;;;;18.70;52.90;;;;;;10276793;28;96797;-64
2024/01/20 22:52:05;;;;;;;;;;;18.70;53.00;;;;;;10277469;28;93606;-64
2024/01/20 22:57:07;;;;;;;;;;;18.80;52.80;;;;;;10267059;28;94159;-63
2024/01/20 23:02:09;;;;;;;;;;;18.90;52.60;;;;;;10274700;28;94013;-64
2024/01/20 23:07:11;;;;;;;;;;;18.90;52.20;;;;;;10279786;28;93783;-64
2024/01/20 23:12:13;;;;;;;;;;;18.80;52.20;;;;;;10273067;28;94739;-64
2024/01/20 23:17:19;;;;;;;;;;;18.70;52.10;;;;;;10277246;28;94749;-64
2024/01/20 23:22:22;;;;;;;;;;;18.60;52.20;;;;;;10278896;28;92696;-64
2024/01/20 23:27:24;;;;;;;;;;;18.50;52.80;;;;;;10269706;28;94825;-64
2024/01/20 23:32:26;;;;;;;;;;;18.40;52.60;;;;;;10276474;28;93510;-64
2024/01/20 23:37:28;;;;;;;;;;;18.30;52.60;;;;;;10275573;28;96167;-64
2024/01/20 23:42:30;;;;;;;;;;;18.20;52.50;;;;;;10268156;28;93730;-64
2024/01/20 23:47:32;;;;;;;;;;;18.00;52.60;;;;;;10271696;28;94073;-64
2024/01/20 23:52:35;;;;;;;;;;;17.90;52.60;;;;;;10265937;28;93071;-63
2024/01/20 23:57:38;;;;;;;;;;;17.80;52.50;;;;;;10273141;28;94403;-64
